Millbach, Pennsylvania
Current Conditions -  °F | °C
As of 12:53 AM on Friday 28 Nov 2014 (Local Time) from KLNS Reporting Station
Overcast Overcast  
Wind Chill: 24°   Ceiling: 4200
Heat Index: 32°   Visibility: 10mi
Dew Point: 27°   Wind: 10mph
Humidity: 82%   Direction: 280°W
Pressure: 30.11"   Gusts: NA
Location:  40.3035°N, 76.254°W
Report Text: KLNS 280553Z 28009KT 10SM SCT033 BKN042 OVC090 00/M03 A3011 RMK AO2 SLP201 T00001028 10000 21022 53001
Loading
Personal Weather Stations






























Interactive Weather Map New forecast layout! Learn more

10-Day Weather Forecast

Advertisements
Track Severe Weather on mobile